< Typhoon 198606 1986 Season Typhoon 198608 >
Typhoon 198607 (PEGGY)
General InformationTrack Information on Google MapsDetailed Wind InformationList of All Images || Disaster Info.ResourceGoogle EarthGE AnimationAtom FeedGeoJSON
Detalied Best Track (Time Zone = UTC)
Year Month Day Hour Lat. Long. Pressure (hPa) Wind (kt) Class Image Chart
1986 6 30 00 13.0 164.0 1006 0 2 Image Chart
1986 6 30 06 13.0 163.0 1006 0 2 Image Chart
1986 6 30 12 13.0 162.0 1006 0 2 Image Chart
1986 6 30 18 13.0 161.0 1006 0 2 Image Chart
1986 7 1 00 13.0 160.0 1006 0 2 Image Chart
1986 7 1 06 13.0 159.0 1006 0 2 Image Chart
1986 7 1 12 13.0 158.0 1006 0 2 Image Chart
1986 7 1 18 13.0 157.0 1006 0 2 Image Chart
1986 7 2 00 13.1 156.0 1004 0 2 Image Chart
1986 7 2 06 13.3 155.0 1004 0 2 Image Chart
1986 7 2 12 13.4 154.0 1004 0 2 Image Chart
1986 7 2 18 13.5 152.9 1004 0 2 Image Chart
1986 7 3 00 13.7 151.8 1002 0 2 Image Chart
1986 7 3 06 13.9 150.7 1000 0 2 Image Chart
1986 7 3 12 14.1 149.6 998 40 3 Image Chart
1986 7 3 18 14.4 148.2 996 40 3 Image Chart
1986 7 4 00 14.6 146.7 994 45 3 Image Chart
1986 7 4 06 14.5 145.2 992 45 3 Image Chart
1986 7 4 12 14.8 143.8 985 50 4 Image Chart
1986 7 4 18 14.8 142.6 980 60 4 Image Chart
1986 7 5 00 14.8 141.5 975 65 5 Image Chart
1986 7 5 06 14.9 140.1 960 75 5 Image Chart
1986 7 5 12 15.1 138.7 945 80 5 Image Chart
1986 7 5 18 15.2 137.3 940 80 5 Image Chart
1986 7 6 00 15.4 136.0 935 80 5 Image Chart
1986 7 6 06 15.7 134.7 920 90 5 Image Chart
1986 7 6 12 16.1 133.1 920 90 5 Image Chart
1986 7 6 18 16.4 131.8 900 110 5 Image Chart
1986 7 7 00 16.7 130.4 905 110 5 Image Chart
1986 7 7 06 16.9 129.0 910 100 5 Image Chart
1986 7 7 12 17.2 127.6 920 95 5 Image Chart
1986 7 7 18 17.2 126.5 925 95 5 Image Chart
1986 7 8 00 17.2 125.7 925 95 5 Image Chart
1986 7 8 06 17.3 124.7 920 95 5 Image Chart
1986 7 8 12 17.5 123.7 920 95 5 Image Chart
1986 7 8 18 17.7 122.9 920 95 5 Image Chart
1986 7 9 00 17.9 122.0 930 90 5 Image Chart
1986 7 9 06 18.2 121.3 950 80 5 Image Chart
1986 7 9 12 18.6 120.7 970 70 5 Image Chart
1986 7 9 18 19.1 120.1 970 70 5 Image Chart
1986 7 10 00 19.6 119.3 975 65 5 Image Chart
1986 7 10 06 19.8 118.6 975 65 5 Image Chart
1986 7 10 12 20.6 118.0 975 60 4 Image Chart
1986 7 10 18 21.1 117.0 975 60 4 Image Chart
1986 7 11 00 21.5 116.3 975 60 4 Image Chart
1986 7 11 06 22.2 115.6 975 60 4 Image Chart
1986 7 11 12 22.8 114.9 980 55 4 Image Chart
1986 7 11 18 23.5 114.1 985 45 3 Image Chart
1986 7 12 00 24.0 113.2 990 40 3 Image Chart
1986 7 12 06 24.5 112.5 992 35 3 Image Chart
1986 7 12 12 25.0 111.5 996 0 2 Image Chart
1986 7 12 18 25.0 111.0 998 0 2 Image Chart
Japan Meteorological Agency Best Track Data | Correction Date : 1992-10-21
< Typhoon 198606 1986 Season Typhoon 198608 >

Help